Flight Track Log - Related Links

Times and Time Zones

All times are in EDT time to prevent confusion due to time zone crossing. See the N368BE flight status page for this flight to view local times or setup timezone preferences in your user account.

Time Position Orientation Groundspeed Altitude Reporting Facility
EDT Latitude Longitude Course Direction KTS MPH feet Rate Location/Type
Wed 02:46:36 PM 39.5333 -104.9333 360° North 279 321 10,700  Level Denver TRACON
Wed 02:47:36 PM 39.6000 -104.9333 360° North 259 298 15,500 3,900 Climbing Denver TRACON
Wed 02:48:36 PM 39.6667 -104.9000 21° North 284 327 18,500 2,895 Climbing Denver TRACON
Wed 02:49:30 PM 39.7333 -104.8500 30° Northeast 318 366 21,000 2,932 Climbing Denver TRACON
Wed 02:50:04 PM 39.7758 -104.8172 31° Northeast 319 367 22,800 1,250 Climbing Denver Center
Wed 02:51:06 PM 39.8778 -104.7422 29° Northeast 388 447 23,000 532 Climbing Denver Center
Wed 02:52:08 PM 39.9800 -104.6697 29° Northeast 441 507 23,900 1,463 Climbing Denver Center
Wed 02:53:09 PM 40.0894 -104.5897 29° Northeast 424 488 26,000 1,854 Climbing Denver Center
Wed 02:54:11 PM 40.2008 -104.5086 29° Northeast 452 520 27,700 2,032 Climbing Denver Center
Wed 02:55:13 PM 40.3078 -104.4317 29° Northeast 434 499 30,200 1,935 Climbing Denver Center
Wed 02:56:15 PM 40.4161 -104.3525 29° Northeast 450 518 31,700 1,403 Climbing Denver Center
Wed 02:57:17 PM 40.5269 -104.2722 29° Northeast 453 521 33,100 1,500 Climbing Denver Center
Wed 02:58:19 PM 40.6683 -104.1836 25° Northeast 469 540 34,800 919 Climbing Denver Center
Wed 02:59:21 PM 40.7881 -104.1189 22° Northeast 460 529 35,000 97 Climbing Denver Center
Wed 03:00:23 PM 40.9144 -104.0464 23° Northeast 494 568 35,000  Level Denver Center
Wed 03:01:25 PM 41.0453 -103.9719 23° Northeast 500 575 35,000  Level Denver Center
Wed 03:02:27 PM 41.1858 -103.8925 23° Northeast 493 567 35,000  Level Denver Center
Wed 03:03:29 PM 41.3044 -103.8233 24° Northeast 490 564 35,000  Level Denver Center
Wed 03:04:31 PM 41.4417 -103.7447 23° Northeast 484 557 35,000 774 Level Denver Center
Wed 03:05:33 PM 41.5567 -103.6783 23° Northeast 476 548 36,600 1,597 Climbing Denver Center
Wed 03:06:35 PM 41.6789 -103.6072 23° Northeast 439 505 38,300 1,161 Climbing Denver Center
Wed 03:07:37 PM 41.7819 -103.5467 24° Northeast 427 491 39,000 339 Climbing Denver Center
Wed 03:08:39 PM 41.8878 -103.4850 23° Northeast 432 497 39,000  Level Denver Center
Wed 03:09:41 PM 42.0192 -103.4181 21° North 451 519 39,000  Level Denver Center
Wed 03:10:43 PM 42.1303 -103.3586 22° Northeast 451 519 39,000  Level Denver Center
Wed 03:11:44 PM 42.2636 -103.2903 21° North 460 529 39,000  Level Denver Center
Wed 03:12:46 PM 42.3775 -103.2306 21° North 463 533 39,000  Level Denver Center
Wed 03:13:48 PM 42.5094 -103.1619 21° North 459 528 39,000  Level Denver Center
Wed 03:14:50 PM 42.6242 -103.1022 21° North 462 532 39,000  Level Denver Center
Wed 03:15:52 PM 42.7567 -103.0317 21° North 460 529 39,000  Level Denver Center
Wed 03:16:54 PM 42.8706 -102.9717 21° North 460 529 39,000  Level Denver Center
Wed 03:17:56 PM 43.0036 -102.8997 22° Northeast 463 533 39,000  Level Denver Center
Wed 03:18:58 PM 43.1178 -102.8406 21° North 461 531 39,000  Level Denver Center
Wed 03:20:00 PM 43.2508 -102.7678 22° Northeast 461 531 39,000  Level Denver Center
Wed 03:21:02 PM 43.3656 -102.7075 21° North 463 533 39,000  Level Denver Center
Wed 03:22:04 PM 43.4983 -102.6347 22° Northeast 461 531 39,000  Level Denver Center
Wed 03:23:05 PM 43.6111 -102.5733 22° Northeast 458 527 39,000  Level Denver Center
Wed 03:24:07 PM 43.7408 -102.4986 23° Northeast 454 522 39,000  Level Denver Center
Wed 03:25:09 PM 43.8569 -102.4400 20° North 459 528 39,000  Level Denver Center
Wed 03:26:11 PM 43.9728 -102.3747 22° Northeast 459 528 39,000  Level Denver Center
Wed 03:27:13 PM 44.0911 -102.3094 22° Northeast 457 526 39,000  Level Denver Center
Wed 03:28:15 PM 44.2339 -102.2317 21° North 458 527 39,000  Level Denver Center
Wed 03:29:17 PM 44.3511 -102.1661 22° Northeast 455 524 39,000  Level Denver Center
Wed 03:30:19 PM 44.4686 -102.1019 21° North 453 521 39,000  Level Denver Center
Wed 03:31:21 PM 44.5833 -102.0342 23° Northeast 450 518 39,000  Level Denver Center
Wed 03:32:23 PM 44.7000 -101.9694 22° Northeast 449 517 39,000  Level Denver Center
Wed 03:33:27 PM 44.8406 -101.8914 21° North 449 517 39,000 -432 Level Minneapolis Center
Wed 03:34:28 PM 44.9558 -101.8261 22° Northeast 446 513 38,100 -927 Descending Minneapolis Center
Wed 03:35:30 PM 45.0708 -101.7589 22° Northeast 446 513 37,100 -532 Descending Minneapolis Center
Wed 03:36:32 PM 45.1858 -101.6928 22° Northeast 445 512 37,000 -48 Descending Minneapolis Center
Wed 03:37:34 PM 45.3006 -101.6264 22° Northeast 444 511 37,000 -290 Level Minneapolis Center
Wed 03:38:36 PM 45.4158 -101.5589 22° Northeast 445 512 36,400 -1,366 Descending Minneapolis Center
Wed 03:39:37 PM 45.5281 -101.4933 22° Northeast 440 506 34,200 -2,146 Descending Minneapolis Center
Wed 03:40:39 PM 45.6272 -101.4336 23° Northeast 410 472 32,000 -2,661 Descending Minneapolis Center
Wed 03:41:41 PM 45.7456 -101.3658 22° Northeast 386 444 28,700 -2,952 Descending Minneapolis Center
Wed 03:42:43 PM 45.8467 -101.3061 22° Northeast 388 447 25,900 -2,661 Descending Minneapolis Center
Wed 03:43:45 PM 45.9469 -101.2469 22° Northeast 389 448 23,200 -2,585 Descending Minneapolis Center
Wed 03:44:46 PM 46.0458 -101.1881 22° Northeast 386 444 20,600 -2,585 Descending Minneapolis Center
Wed 03:45:48 PM 46.1467 -101.1647 North 381 438 17,900 -2,419 Descending Minneapolis Center
Wed 03:46:50 PM 46.2478 -101.1581 North 373 429 15,600 -2,081 Descending Minneapolis Center
Wed 03:47:52 PM 46.3439 -101.1464 North 359 413 13,600 -1,984 Descending Minneapolis Center
Wed 03:48:54 PM 46.4381 -101.1297 North 350 403 11,500 -2,371 Descending Minneapolis Center
Wed 03:49:56 PM 46.5436 -101.0981 12° North 324 373 8,700 -2,537 Descending Minneapolis Center
Wed 03:50:57 PM 46.6239 -101.0814 North 289 333 6,300 -1,805 Descending Minneapolis Center
Wed 03:51:59 PM 46.6989 -101.0650 North 272 313 5,000 -871 Descending Minneapolis Center
Wed 03:53:01 PM 46.7650 -101.0519 North 240 276 4,500 -484 Descending Minneapolis Center
Wed 03:54:03 PM 46.8369 -101.0361 North 238 274 4,000 -242 Descending Minneapolis Center
Wed 03:55:05 PM 46.8839 -100.9842 37° Northeast 212 244 4,000 -194 Level Minneapolis Center
Wed 03:56:07 PM 46.8919 -100.9058 81° East 215 247 3,600 -419 Descending Minneapolis Center
Wed 03:58:00 PM 46.7727 -100.7458 85° East  Level Estimated
Wed 03:58:11 PM 46.8192 -100.8086 85° East 166 191 2,700  Level Minneapolis Center
Wed 03:59:13 PM 46.7931 -100.7739 138° Southeast 131 151 2,000 -532 Descending Minneapolis Center
Wed 04:00:15 PM 46.7700 -100.7425 137° Southeast 117 135 1,600 -387 Descending Minneapolis Center

Login

Don't have an account? Register now (free) for customized features, flight alerts, and more!